sensor_id;sensor_type;location;lat;lon;timestamp;pressure;altitude;pressure_sealevel;temperature;humidity
79316;BME280;68779;50.036;19.964;2023-05-10T00:11:35;101995.24;;;8.52;62.62
79316;BME280;68779;50.036;19.964;2023-05-10T00:41:49;101977.33;;;8.23;63.56
79316;BME280;68779;50.036;19.964;2023-05-10T01:12:04;101966.02;;;7.75;64.99
79316;BME280;68779;50.036;19.964;2023-05-10T01:42:24;101968.27;;;7.41;65.28
79316;BME280;68779;50.036;19.964;2023-05-10T02:12:43;101942.27;;;7.24;65.90
79316;BME280;68779;50.036;19.964;2023-05-10T02:43:04;101927.40;;;6.89;66.55
79316;BME280;68779;50.036;19.964;2023-05-10T03:43:45;101930.63;;;6.66;67.85
79316;BME280;68779;50.036;19.964;2023-05-10T04:14:00;101931.37;;;7.12;67.67
79316;BME280;68779;50.036;19.964;2023-05-10T04:44:14;101932.20;;;8.09;64.02
79316;BME280;68779;50.036;19.964;2023-05-10T05:14:28;101911.92;;;8.81;62.25
79316;BME280;68779;50.036;19.964;2023-05-10T05:44:41;101906.73;;;10.01;60.71
79316;BME280;68779;50.036;19.964;2023-05-10T06:14:55;101917.17;;;10.65;58.33
79316;BME280;68779;50.036;19.964;2023-05-10T06:45:14;101909.26;;;11.85;54.83
79316;BME280;68779;50.036;19.964;2023-05-10T07:15:30;101897.56;;;13.10;54.14
79316;BME280;68779;50.036;19.964;2023-05-10T07:45:46;101891.02;;;14.12;52.74
79316;BME280;68779;50.036;19.964;2023-05-10T08:16:08;101866.29;;;15.90;49.46
79316;BME280;68779;50.036;19.964;2023-05-10T08:46:22;101845.58;;;17.10;43.43
79316;BME280;68779;50.036;19.964;2023-05-10T09:16:36;101835.28;;;17.71;39.01
79316;BME280;68779;50.036;19.964;2023-05-10T10:03:21;101832.81;;;19.07;36.50
79316;BME280;68779;50.036;19.964;2023-05-10T11:34:36;101752.36;;;22.37;29.40
79316;BME280;68779;50.036;19.964;2023-05-10T12:04:56;101735.28;;;23.57;29.19
79316;BME280;68779;50.036;19.964;2023-05-10T12:35:15;101702.46;;;25.18;27.28
79316;BME280;68779;50.036;19.964;2023-05-10T13:05:29;101677.52;;;24.79;25.82
79316;BME280;68779;50.036;19.964;2023-05-10T13:35:44;101667.20;;;25.88;25.27
79316;BME280;68779;50.036;19.964;2023-05-10T14:05:58;101617.29;;;27.15;23.49
79316;BME280;68779;50.036;19.964;2023-05-10T14:36:12;101612.86;;;30.25;20.65
79316;BME280;68779;50.036;19.964;2023-05-10T15:06:37;101616.02;;;30.45;19.92
79316;BME280;68779;50.036;19.964;2023-05-10T15:36:51;101591.15;;;23.15;28.65
79316;BME280;68779;50.036;19.964;2023-05-10T16:07:05;101600.88;;;21.53;30.26
79316;BME280;68779;50.036;19.964;2023-05-10T16:37:22;101612.03;;;20.44;32.69
79316;BME280;68779;50.036;19.964;2023-05-10T17:07:35;101628.09;;;19.89;33.35
79316;BME280;68779;50.036;19.964;2023-05-10T17:37:50;101650.70;;;19.39;33.84
79316;BME280;68779;50.036;19.964;2023-05-10T18:08:04;101703.25;;;17.87;36.72
79316;BME280;68779;50.036;19.964;2023-05-10T18:38:25;101728.20;;;16.94;38.86
79316;BME280;68779;50.036;19.964;2023-05-10T19:08:41;101761.88;;;16.70;39.53
79316;BME280;68779;50.036;19.964;2023-05-10T19:38:55;101775.20;;;15.87;40.74
79316;BME280;68779;50.036;19.964;2023-05-10T20:09:10;101783.86;;;15.47;42.40
79316;BME280;68779;50.036;19.964;2023-05-10T20:39:24;101788.78;;;14.60;43.34
79316;BME280;68779;50.036;19.964;2023-05-10T21:09:42;101800.91;;;14.20;45.03
79316;BME280;68779;50.036;19.964;2023-05-10T21:39:55;101802.40;;;13.55;46.80
79316;BME280;68779;50.036;19.964;2023-05-10T22:10:12;101811.47;;;12.86;49.75
79316;BME280;68779;50.036;19.964;2023-05-10T23:10:48;101838.88;;;11.90;52.19
79316;BME280;68779;50.036;19.964;2023-05-10T23:41:02;101853.44;;;11.47;53.87
